• Join FlightAware (Why Join?)
  • Login
  • US Flag 
01:09PM EDT


 

Airport Tracker/Info


-or-


 

Live Flight TrackerFlight Track Log ✈ DAL2352 ✈ 10-Jul-2013 ✈ KALB - KATL

Flight Track Log - Related Links

Times and Time Zones

All times are in EDT time to prevent confusion due to time zone crossing. See the DAL2352 flight status page for this flight to view local times or setup timezone preferences in your user account.

Time Position Orientation Groundspeed Altitude Reporting Facility
EDT Latitude Longitude Course Direction KTS MPH feet Rate Location/Type
06:29AM 42.7236 -73.8081 207° Southwest 147 169 1,500  Level Boston Center
06:30AM 42.6794 -73.8381 207° Southwest 225 259 3,100 1,500 Climbing Boston Center
06:31AM 42.7081 -73.8925 306° West 278 320 4,400 2,400 Climbing Boston Center
06:32AM 42.7633 -73.9531 321° Northwest 285 328 7,400 2,760 Climbing Boston Center
06:33AM 42.8208 -74.0253 317° Northwest 285 328 10,000 2,700 Climbing Boston Center
06:34AM 42.8317 -74.1358 278° West 262 302 12,900 2,280 Climbing Boston Center
06:35AM 42.8200 -74.2261 260° West 272 313 14,600 1,500 Climbing Boston Center
06:36AM 42.7261 -74.2264 180° South 211 243 15,900 1,080 Climbing Boston Center
06:37AM 42.6308 -74.1897 164° South 366 421 16,800 1,320 Climbing Boston Center
06:38AM 42.5086 -74.1411 164° South 402 463 18,600 1,560 Climbing Boston Center
06:39AM 42.4050 -74.1019 164° South 415 478 20,000 1,500 Climbing Boston Center
06:40AM 42.2847 -74.0536 163° South 434 499 21,600 1,500 Climbing Boston Center
06:41AM 42.1578 -74.0364 174° South 447 514 23,000 1,260 Climbing Boston Center
06:42AM 42.0361 -74.0922 199° South 455 524 24,200 1,380 Climbing Boston Center
06:44AM 41.7947 -74.2069 200° South 477 549 27,200 1,560 Climbing New York Center
06:45AM 41.6722 -74.2592 198° South 482 555 28,900 1,320 Climbing New York Center
06:46AM 41.5542 -74.3083 197° South 477 549 29,900 1,020 Climbing New York Center
06:47AM 41.4297 -74.3653 199° South 461 531 31,000 1,080 Climbing New York Center
06:48AM 41.3114 -74.4169 198° South 461 531 32,100 900 Climbing New York Center
06:49AM 41.1869 -74.4708 198° South 466 536 32,900 540 Climbing New York Center
06:50AM 41.0644 -74.5247 198° South 466 536 33,200 -360 Climbing New York Center
06:51AM 40.9422 -74.5703 196° South 466 536 32,200 -600 Descending New York Center
06:52AM 40.8431 -74.6717 218° Southwest 455 524 32,000 -120 Descending New York Center
06:53AM 40.7575 -74.7983 228° Southwest 455 524 32,000  Level New York Center
06:54AM 40.6717 -74.9272 229° Southwest 461 531 32,000  Level New York Center
06:55AM 40.5883 -75.0478 228° Southwest 466 536 32,000  Level New York Center
06:56AM 40.5025 -75.1708 227° Southwest 466 536 32,000  Level New York Center
06:57AM 40.4167 -75.2908 227° Southwest 461 531 32,000  Level New York Center
06:58AM 40.3306 -75.4158 228° Southwest 461 531 32,000  Level New York Center
06:59AM 40.2444 -75.5350 227° Southwest 461 531 32,000  Level New York Center
07:00AM 40.1700 -75.6714 234° Southwest 461 531 32,000  Level New York Center
07:01AM 40.1017 -75.8103 237° Southwest 461 531 32,000  Level New York Center
07:02AM 40.0333 -75.9436 236° Southwest 461 531 32,000  Level New York Center
07:03AM 39.9628 -76.0819 236° Southwest 456 525 32,000  Level New York Center
07:04AM 39.8808 -76.2272 234° Southwest 456 525 32,000  Level New York Center
07:05AM 39.7939 -76.3475 227° Southwest 462 532 32,000  Level New York Center
07:06AM 39.7050 -76.4647 225° Southwest 462 532 32,000  Level New York Center
07:07AM 39.6200 -76.5803 226° Southwest 444 511 32,000  Level Washington Center
07:08AM 39.5336 -76.6947 226° Southwest 439 505 32,000  Level Washington Center
07:09AM 39.4450 -76.8089 225° Southwest 445 512 32,000  Level Washington Center
07:10AM 39.3561 -76.9256 225° Southwest 450 518 32,000  Level Washington Center
07:11AM 39.2694 -77.0419 226° Southwest 450 518 32,000  Level Washington Center
07:12AM 39.1806 -77.1581 225° Southwest 450 518 32,000  Level Washington Center
07:13AM 39.0914 -77.2764 226° Southwest 450 518 32,000  Level Washington Center
07:14AM 38.9936 -77.3997 224° Southwest 450 518 32,000  Level Washington Center
07:15AM 38.9064 -77.5150 226° Southwest 450 518 32,000  Level Washington Center
07:16AM 38.8106 -77.6325 224° Southwest 462 532 32,000  Level Washington Center
07:17AM 38.7208 -77.7522 226° Southwest 468 539 32,000  Level Washington Center
07:18AM 38.6333 -77.8719 227° Southwest 468 539 32,000  Level Washington Center
07:19AM 38.5600 -77.9997 234° Southwest 462 532 32,000  Level Washington Center
07:20AM 38.4822 -78.1300 233° Southwest 462 532 32,000  Level Washington Center
07:21AM 38.4042 -78.2625 233° Southwest 462 532 32,000  Level Washington Center
07:22AM 38.3242 -78.3944 232° Southwest 473 544 32,000  Level Washington Center
07:23AM 38.2481 -78.5239 233° Southwest 473 544 32,000  Level Washington Center
07:24AM 38.1758 -78.6531 235° Southwest 465 535 32,000  Level Washington Center
07:25AM 38.1042 -78.7717 233° Southwest 471 542 32,000  Level Washington Center
07:26AM 38.0275 -78.9028 233° Southwest 471 542 32,000  Level Washington Center
07:27AM 37.9467 -79.0336 232° Southwest 471 542 32,000  Level Washington Center
07:28AM 37.8658 -79.1586 231° Southwest 471 542 32,000  Level Washington Center
07:29AM 37.7681 -79.2906 227° Southwest 471 542 32,000  Level Washington Center
07:30AM 37.6872 -79.3997 227° Southwest 471 542 32,000  Level Washington Center
07:31AM 37.5911 -79.5336 228° Southwest 477 549 32,000  Level Washington Center
07:32AM 37.5125 -79.6422 228° Southwest 477 549 32,000  Level Washington Center
07:33AM 37.4117 -79.7806 227° Southwest 485 558 32,000  Level Washington Center
07:34AM 37.3242 -79.8986 227° Southwest 480 552 32,000  Level Washington Center
07:36AM 37.1833 -80.0897 227° Southwest 459 528 32,000  Level Atlanta Center
07:37AM 37.0875 -80.2219 228° Southwest 465 535 32,000  Level Atlanta Center
07:38AM 36.9992 -80.3381 226° Southwest 465 535 32,000  Level Atlanta Center
07:39AM 36.9111 -80.4564 227° Southwest 465 535 32,000  Level Atlanta Center
07:40AM 36.8328 -80.5608 227° Southwest 460 529 32,000  Level Atlanta Center
07:41AM 36.7461 -80.6736 226° Southwest 460 529 32,000  Level Atlanta Center
07:42AM 36.6619 -80.7911 228° Southwest 454 522 32,000  Level Atlanta Center
07:43AM 36.5731 -80.9083 227° Southwest 459 528 32,000  Level Atlanta Center
07:44AM 36.4842 -81.0228 226° Southwest 459 528 32,000  Level Atlanta Center
07:45AM 36.3953 -81.1422 227° Southwest 459 528 32,000  Level Atlanta Center
07:46AM 36.3022 -81.2692 228° Southwest 459 528 32,000  Level Atlanta Center
07:47AM 36.2131 -81.3831 226° Southwest 459 528 32,000  Level Atlanta Center
07:48AM 36.1239 -81.5017 227° Southwest 459 528 32,000  Level Atlanta Center
07:49AM 36.0344 -81.6175 226° Southwest 465 535 32,000  Level Atlanta Center
07:50AM 35.9447 -81.7328 226° Southwest 459 528 32,000  Level Atlanta Center
07:51AM 35.8572 -81.8508 228° Southwest 467 537 32,000  Level Atlanta Center
07:52AM 35.7633 -81.9683 225° Southwest 472 543 32,000  Level Atlanta Center
07:53AM 35.6756 -82.0806 226° Southwest 472 543 32,000  Level Atlanta Center
07:54AM 35.5856 -82.1925 225° Southwest 467 537 32,000  Level Atlanta Center
07:55AM 35.4953 -82.3042 225° Southwest 467 537 32,000 -480 Level Atlanta Center
07:56AM 35.4072 -82.4156 226° Southwest 454 522 31,100 -1,020 Descending Atlanta Center
07:57AM 35.3231 -82.5242 226° Southwest 454 522 30,000 -1,080 Descending Atlanta Center
07:58AM 35.2469 -82.6172 225° Southwest 454 522 29,000 -540 Descending Atlanta Center
07:59AM 35.1644 -82.7175 225° Southwest 438 504 29,000 -600 Level Atlanta Center
08:00AM 35.0822 -82.8206 226° Southwest 431 496 27,900 -1,080 Descending Atlanta Center
08:01AM 35.0081 -82.9178 227° Southwest 416 479 26,900 -1,080 Descending Atlanta Center
08:02AM 34.9294 -83.0128 225° Southwest 403 464 25,800 -1,020 Descending Atlanta Center
08:03AM 34.8467 -83.1125 225° Southwest 390 449 24,900 -840 Descending Atlanta Center
08:04AM 34.7744 -83.2017 225° Southwest 379 436 24,200 -660 Descending Atlanta Center
08:05AM 34.6997 -83.2933 225° Southwest 384 442 23,600 -720 Descending Atlanta Center
08:06AM 34.6211 -83.3700 219° Southwest 371 427 22,800 -780 Descending Atlanta Center
08:07AM 34.5756 -83.4636 239° Southwest 357 411 22,100 -1,140 Descending Atlanta Center
08:08AM 34.5428 -83.5772 251° West 359 413 20,600 -1,080 Descending Atlanta Center
08:09AM 34.5158 -83.6883 254° West 354 407 20,000 -1,080 Descending Atlanta Center
08:10AM 34.4847 -83.7994 251° West 349 402 18,500 -1,620 Descending Atlanta Center
08:11AM 34.4267 -83.8775 228° Southwest 322 371 16,800 -1,680 Descending Atlanta Center
08:12AM 34.3389 -83.9031 194° South 308 354 15,200 -1,560 Descending Atlanta Center
08:13AM 34.2472 -83.9231 190° South 321 369 13,700 -1,560 Descending Atlanta Center
08:14AM 34.1533 -83.9458 191° South 321 369 12,100 -1,500 Descending Atlanta Center
08:15AM 34.0697 -83.9661 191° South 310 357 10,700 -1,500 Descending Atlanta Center
08:16AM 33.9833 -83.9667 180° South 296 341 9,000 -780 Descending Atlanta TRACON
08:17AM 33.8833 -83.9500 172° South 294 338 9,000 -300 Level Atlanta TRACON
08:18AM 33.8233 -83.9514 181° South 304 350 8,500 -840 Descending Atlanta Center
08:19AM 33.7442 -83.9514 180° South 292 336 7,600 -780 Descending Atlanta Center
08:20AM 33.6731 -83.9464 177° South 292 336 7,000 -300 Descending Atlanta Center
08:21AM 33.6356 -83.9964 228° Southwest 202 232 7,000 -600 Level Atlanta Center
08:23AM 33.6333 -84.1500 269° West 194 223 5,100 -900 Descending Atlanta TRACON
08:24AM 33.6333 -84.2167 270° West 191 220 4,200 -960 Descending Atlanta TRACON
08:25AM 33.6333 -84.2833 270° West 187 215 3,200 -960 Descending Atlanta TRACON
08:26AM 33.6333 -84.3333 270° West 168 193 2,300 -900 Descending Atlanta TRACON
08:27AM 33.6333 -84.3833 270° West 145 167 1,500 -840 Descending Atlanta TRACON
08:29AM 33.6367 -84.4279 270° West  Level Estimated
08:36AM 33.6367 -84.4279 64° Northeast  Level Estimated